sensor_id;sensor_type;location;lat;lon;timestamp;pressure;altitude;pressure_sealevel;temperature;humidity
55301;BME280;58302;51.446;-2.000;2023-07-29T00:01:36;98771.03;;;14.52;100.00
55301;BME280;58302;51.446;-2.000;2023-07-29T00:04:02;98773.28;;;14.49;100.00
55301;BME280;58302;51.446;-2.000;2023-07-29T00:06:28;98776.34;;;14.48;100.00
55301;BME280;58302;51.446;-2.000;2023-07-29T00:08:54;98768.81;;;14.45;100.00
55301;BME280;58302;51.446;-2.000;2023-07-29T00:11:20;98768.81;;;14.45;100.00
55301;BME280;58302;51.446;-2.000;2023-07-29T00:13:46;98773.94;;;14.46;100.00
55301;BME280;58302;51.446;-2.000;2023-07-29T00:16:13;98782.97;;;14.47;100.00
55301;BME280;58302;51.446;-2.000;2023-07-29T00:18:41;98776.06;;;14.41;100.00
55301;BME280;58302;51.446;-2.000;2023-07-29T00:21:07;98784.72;;;14.43;100.00
55301;BME280;58302;51.446;-2.000;2023-07-29T00:23:33;98783.13;;;14.42;100.00
55301;BME280;58302;51.446;-2.000;2023-07-29T00:25:59;98779.09;;;14.39;100.00
55301;BME280;58302;51.446;-2.000;2023-07-29T00:28:25;98773.97;;;14.38;100.00
55301;BME280;58302;51.446;-2.000;2023-07-29T00:30:51;98771.84;;;14.43;100.00
55301;BME280;58302;51.446;-2.000;2023-07-29T00:33:17;98754.50;;;14.39;100.00
55301;BME280;58302;51.446;-2.000;2023-07-29T00:35:43;98758.88;;;14.40;100.00
55301;BME280;58302;51.446;-2.000;2023-07-29T00:38:09;98761.25;;;14.42;100.00
55301;BME280;58302;51.446;-2.000;2023-07-29T00:40:35;98762.72;;;14.39;100.00
55301;BME280;58302;51.446;-2.000;2023-07-29T00:43:01;98760.50;;;14.33;100.00
55301;BME280;58302;51.446;-2.000;2023-07-29T00:45:29;98749.91;;;14.31;100.00
55301;BME280;58302;51.446;-2.000;2023-07-29T00:47:55;98755.03;;;14.33;100.00
55301;BME280;58302;51.446;-2.000;2023-07-29T00:50:21;98753.09;;;14.33;100.00
55301;BME280;58302;51.446;-2.000;2023-07-29T00:52:48;98749.91;;;14.31;100.00
55301;BME280;58302;51.446;-2.000;2023-07-29T00:55:15;98756.84;;;14.29;100.00
55301;BME280;58302;51.446;-2.000;2023-07-29T00:57:41;98746.22;;;14.27;100.00
55301;BME280;58302;51.446;-2.000;2023-07-29T01:00:08;98740.47;;;14.29;100.00
55301;BME280;58302;51.446;-2.000;2023-07-29T01:02:35;98744.63;;;14.26;100.00
55301;BME280;58302;51.446;-2.000;2023-07-29T01:05:01;98743.84;;;14.26;100.00
55301;BME280;58302;51.446;-2.000;2023-07-29T01:07:33;98743.03;;;14.25;100.00
55301;BME280;58302;51.446;-2.000;2023-07-29T01:10:05;98744.19;;;14.24;100.00
55301;BME280;58302;51.446;-2.000;2023-07-29T01:13:01;98745.09;;;14.28;100.00
55301;BME280;58302;51.446;-2.000;2023-07-29T01:15:55;98742.06;;;14.30;100.00
55301;BME280;58302;51.446;-2.000;2023-07-29T01:18:28;98745.09;;;14.28;100.00
55301;BME280;58302;51.446;-2.000;2023-07-29T01:20:59;98743.03;;;14.25;100.00
55301;BME280;58302;51.446;-2.000;2023-07-29T01:23:29;98749.75;;;14.28;100.00
55301;BME280;58302;51.446;-2.000;2023-07-29T01:25:55;98748.34;;;14.21;100.00
55301;BME280;58302;51.446;-2.000;2023-07-29T01:28:21;98753.19;;;14.24;100.00
55301;BME280;58302;51.446;-2.000;2023-07-29T01:36:15;98758.03;;;14.19;100.00
55301;BME280;58302;51.446;-2.000;2023-07-29T01:38:43;98758.38;;;14.17;100.00
55301;BME280;58302;51.446;-2.000;2023-07-29T01:41:10;98763.50;;;14.19;100.00
55301;BME280;58302;51.446;-2.000;2023-07-29T01:43:37;98762.69;;;14.18;100.00
55301;BME280;58302;51.446;-2.000;2023-07-29T01:46:13;98760.47;;;14.12;100.00
55301;BME280;58302;51.446;-2.000;2023-07-29T01:48:40;98759.34;;;14.13;100.00
55301;BME280;58302;51.446;-2.000;2023-07-29T01:51:06;98762.09;;;14.13;100.00
55301;BME280;58302;51.446;-2.000;2023-07-29T01:53:33;98757.28;;;14.10;100.00
55301;BME280;58302;51.446;-2.000;2023-07-29T01:55:59;98756.13;;;14.11;100.00
55301;BME280;58302;51.446;-2.000;2023-07-29T01:58:25;98753.28;;;14.07;100.00
55301;BME280;58302;51.446;-2.000;2023-07-29T02:00:51;98763.41;;;14.07;100.00
55301;BME280;58302;51.446;-2.000;2023-07-29T02:03:17;98762.91;;;14.05;100.00
55301;BME280;58302;51.446;-2.000;2023-07-29T02:05:43;98767.59;;;14.04;100.00
55301;BME280;58302;51.446;-2.000;2023-07-29T02:08:10;98772.91;;;14.01;100.00
55301;BME280;58302;51.446;-2.000;2023-07-29T02:10:36;98768.91;;;13.98;100.00
55301;BME280;58302;51.446;-2.000;2023-07-29T02:13:03;98767.94;;;13.94;100.00
55301;BME280;58302;51.446;-2.000;2023-07-29T02:15:29;98764.91;;;13.95;100.00
55301;BME280;58302;51.446;-2.000;2023-07-29T02:17:55;98771.34;;;13.91;100.00
55301;BME280;58302;51.446;-2.000;2023-07-29T02:20:21;98772.34;;;13.86;100.00
55301;BME280;58302;51.446;-2.000;2023-07-29T02:22:47;98769.13;;;13.84;100.00
55301;BME280;58302;51.446;-2.000;2023-07-29T02:25:14;98766.09;;;13.77;100.00
55301;BME280;58302;51.446;-2.000;2023-07-29T02:27:40;98765.81;;;13.70;100.00
55301;BME280;58302;51.446;-2.000;2023-07-29T02:30:07;98779.66;;;13.65;100.00
55301;BME280;58302;51.446;-2.000;2023-07-29T02:32:35;98771.44;;;13.65;100.00
55301;BME280;58302;51.446;-2.000;2023-07-29T02:35:01;98768.91;;;13.60;100.00
55301;BME280;58302;51.446;-2.000;2023-07-29T02:37:27;98767.81;;;13.52;100.00
55301;BME280;58302;51.446;-2.000;2023-07-29T02:39:53;98776.47;;;13.54;100.00
55301;BME280;58302;51.446;-2.000;2023-07-29T02:42:19;98774.06;;;13.53;100.00
55301;BME280;58302;51.446;-2.000;2023-07-29T02:44:45;98783.38;;;13.52;100.00
55301;BME280;58302;51.446;-2.000;2023-07-29T02:47:11;98774.06;;;13.53;100.00
55301;BME280;58302;51.446;-2.000;2023-07-29T02:49:37;98772.47;;;13.52;100.00
55301;BME280;58302;51.446;-2.000;2023-07-29T02:52:03;98774.72;;;13.50;100.00
55301;BME280;58302;51.446;-2.000;2023-07-29T02:54:29;98774.38;;;13.51;100.00
55301;BME280;58302;51.446;-2.000;2023-07-29T02:56:55;98765.88;;;13.53;100.00
55301;BME280;58302;51.446;-2.000;2023-07-29T02:59:21;98756.56;;;13.54;100.00
55301;BME280;58302;51.446;-2.000;2023-07-29T03:01:47;98767.00;;;13.52;100.00
55301;BME280;58302;51.446;-2.000;2023-07-29T03:04:13;98757.06;;;13.47;100.00
55301;BME280;58302;51.446;-2.000;2023-07-29T03:06:39;98770.72;;;13.47;100.00
55301;BME280;58302;51.446;-2.000;2023-07-29T03:09:05;98766.88;;;13.39;100.00
55301;BME280;58302;51.446;-2.000;2023-07-29T03:11:31;98764.00;;;13.36;100.00
55301;BME280;58302;51.446;-2.000;2023-07-29T03:13:57;98766.41;;;13.37;100.00
55301;BME280;58302;51.446;-2.000;2023-07-29T03:16:23;98759.66;;;13.35;100.00
55301;BME280;58302;51.446;-2.000;2023-07-29T03:18:49;98754.53;;;13.33;100.00
55301;BME280;58302;51.446;-2.000;2023-07-29T03:21:15;98756.78;;;13.31;100.00
55301;BME280;58302;51.446;-2.000;2023-07-29T03:23:41;98761.28;;;13.27;100.00
55301;BME280;58302;51.446;-2.000;2023-07-29T03:26:07;98757.94;;;13.22;100.00
55301;BME280;58302;51.446;-2.000;2023-07-29T03:28:39;98763.19;;;13.18;100.00
55301;BME280;58302;51.446;-2.000;2023-07-29T03:31:05;98766.09;;;13.13;100.00
55301;BME280;58302;51.446;-2.000;2023-07-29T03:33:31;98768.66;;;13.09;100.00
55301;BME280;58302;51.446;-2.000;2023-07-29T03:35:57;98772.84;;;13.07;100.00
55301;BME280;58302;51.446;-2.000;2023-07-29T03:38:23;98767.88;;;13.00;100.00
55301;BME280;58302;51.446;-2.000;2023-07-29T03:40:49;98776.72;;;12.97;100.00
55301;BME280;58302;51.446;-2.000;2023-07-29T03:43:15;98782.00;;;12.93;100.00
55301;BME280;58302;51.446;-2.000;2023-07-29T03:45:40;98777.97;;;12.91;100.00
55301;BME280;58302;51.446;-2.000;2023-07-29T03:48:07;98782.16;;;12.88;100.00
55301;BME280;58302;51.446;-2.000;2023-07-29T03:50:34;98790.97;;;12.85;100.00
55301;BME280;58302;51.446;-2.000;2023-07-29T03:53:04;98789.69;;;12.83;100.00
55301;BME280;58302;51.446;-2.000;2023-07-29T03:55:32;98791.28;;;12.84;100.00
55301;BME280;58302;51.446;-2.000;2023-07-29T03:57:59;98791.28;;;12.84;100.00
55301;BME280;58302;51.446;-2.000;2023-07-29T04:00:25;98784.41;;;12.86;100.00
55301;BME280;58302;51.446;-2.000;2023-07-29T04:02:52;98788.09;;;12.90;100.00
55301;BME280;58302;51.446;-2.000;2023-07-29T04:05:18;98780.56;;;12.87;100.00
55301;BME280;58302;51.446;-2.000;2023-07-29T04:07:44;98792.44;;;12.91;100.00
55301;BME280;58302;51.446;-2.000;2023-07-29T04:10:10;98786.81;;;12.88;100.00
55301;BME280;58302;51.446;-2.000;2023-07-29T04:12:37;98971.09;;;12.80;100.00
55301;BME280;58302;51.446;-2.000;2023-07-29T04:15:03;98978.09;;;12.73;100.00
55301;BME280;58302;51.446;-2.000;2023-07-29T04:17:29;98980.31;;;12.62;100.00
55301;BME280;58302;51.446;-2.000;2023-07-29T04:19:55;98978.34;;;12.54;100.00
55301;BME280;58302;51.446;-2.000;2023-07-29T04:22:21;98977.97;;;12.47;100.00
55301;BME280;58302;51.446;-2.000;2023-07-29T04:24:47;98982.91;;;12.36;100.00
55301;BME280;58302;51.446;-2.000;2023-07-29T04:27:13;98985.13;;;12.25;100.00
55301;BME280;58302;51.446;-2.000;2023-07-29T04:29:39;98993.09;;;12.22;100.00
55301;BME280;58302;51.446;-2.000;2023-07-29T04:32:05;98988.78;;;12.21;100.00
55301;BME280;58302;51.446;-2.000;2023-07-29T04:34:31;98999.16;;;12.19;100.00
55301;BME280;58302;51.446;-2.000;2023-07-29T04:36:58;98997.56;;;12.18;100.00
55301;BME280;58302;51.446;-2.000;2023-07-29T04:39:23;98997.19;;;12.10;100.00
55301;BME280;58302;51.446;-2.000;2023-07-29T04:41:49;98989.63;;;12.07;100.00
55301;BME280;58302;51.446;-2.000;2023-07-29T04:44:15;98993.66;;;12.10;100.00
55301;BME280;58302;51.446;-2.000;2023-07-29T04:46:41;98991.56;;;12.07;100.00
55301;BME280;58302;51.446;-2.000;2023-07-29T04:49:07;98989.47;;;12.04;100.00
55301;BME280;58302;51.446;-2.000;2023-07-29T04:51:33;98980.50;;;12.03;100.00
55301;BME280;58302;51.446;-2.000;2023-07-29T04:53:59;98976.94;;;12.03;100.00
55301;BME280;58302;51.446;-2.000;2023-07-29T04:56:25;98985.44;;;12.01;100.00
55301;BME280;58302;51.446;-2.000;2023-07-29T04:58:52;98971.34;;;11.99;100.00
55301;BME280;58302;51.446;-2.000;2023-07-29T05:01:18;98974.06;;;11.99;100.00
55301;BME280;58302;51.446;-2.000;2023-07-29T05:03:44;98968.16;;;12.06;100.00
55301;BME280;58302;51.446;-2.000;2023-07-29T05:06:10;98970.97;;;12.15;100.00
55301;BME280;58302;51.446;-2.000;2023-07-29T05:08:36;98956.63;;;12.31;100.00
55301;BME280;58302;51.446;-2.000;2023-07-29T05:11:02;98941.75;;;12.46;100.00
55301;BME280;58302;51.446;-2.000;2023-07-29T05:13:28;98939.25;;;12.58;100.00
55301;BME280;58302;51.446;-2.000;2023-07-29T05:15:54;98931.28;;;12.79;100.00
55301;BME280;58302;51.446;-2.000;2023-07-29T05:18:20;98930.03;;;12.94;100.00
55301;BME280;58302;51.446;-2.000;2023-07-29T05:20:47;98902.78;;;13.11;100.00
55301;BME280;58302;51.446;-2.000;2023-07-29T05:23:13;98895.44;;;13.29;100.00
55301;BME280;58302;51.446;-2.000;2023-07-29T05:25:39;98881.31;;;13.44;100.00
55301;BME280;58302;51.446;-2.000;2023-07-29T05:28:05;98883.53;;;13.60;100.00
55301;BME280;58302;51.446;-2.000;2023-07-29T05:30:32;98871.00;;;13.67;100.00
55301;BME280;58302;51.446;-2.000;2023-07-29T05:33:00;98844.03;;;13.75;100.00
55301;BME280;58302;51.446;-2.000;2023-07-29T05:35:26;98834.38;;;13.77;100.00
55301;BME280;58302;51.446;-2.000;2023-07-29T05:37:52;98829.84;;;13.81;100.00
55301;BME280;58302;51.446;-2.000;2023-07-29T05:40:18;98829.19;;;13.84;100.00
55301;BME280;58302;51.446;-2.000;2023-07-29T05:42:44;98824.06;;;13.83;100.00
55301;BME280;58302;51.446;-2.000;2023-07-29T05:45:11;98829.19;;;13.84;100.00
55301;BME280;58302;51.446;-2.000;2023-07-29T05:47:37;98828.88;;;13.86;100.00
55301;BME280;58302;51.446;-2.000;2023-07-29T05:50:04;98825.47;;;13.89;100.00
55301;BME280;58302;51.446;-2.000;2023-07-29T05:52:31;98828.38;;;13.92;100.00
55301;BME280;58302;51.446;-2.000;2023-07-29T05:54:57;98823.88;;;13.96;100.00
55301;BME280;58302;51.446;-2.000;2023-07-29T05:57:23;98837.81;;;14.04;100.00
55301;BME280;58302;51.446;-2.000;2023-07-29T05:59:52;98835.84;;;14.13;100.00
55301;BME280;58302;51.446;-2.000;2023-07-29T06:02:18;98838.41;;;14.18;100.00
55301;BME280;58302;51.446;-2.000;2023-07-29T06:04:43;98840.28;;;14.26;100.00
55301;BME280;58302;51.446;-2.000;2023-07-29T06:07:09;98847.94;;;14.33;100.00
55301;BME280;58302;51.446;-2.000;2023-07-29T06:09:35;98838.25;;;14.44;100.00
55301;BME280;58302;51.446;-2.000;2023-07-29T06:12:01;98850.72;;;14.62;100.00
55301;BME280;58302;51.446;-2.000;2023-07-29T06:14:27;98848.69;;;14.80;100.00
55301;BME280;58302;51.446;-2.000;2023-07-29T06:16:53;98851.09;;;15.02;100.00
55301;BME280;58302;51.446;-2.000;2023-07-29T06:19:20;98853.69;;;15.20;100.00
55301;BME280;58302;51.446;-2.000;2023-07-29T06:21:46;98858.94;;;15.25;100.00
55301;BME280;58302;51.446;-2.000;2023-07-29T06:24:12;98871.78;;;15.33;100.00
55301;BME280;58302;51.446;-2.000;2023-07-29T06:26:38;98892.03;;;15.32;100.00
55301;BME280;58302;51.446;-2.000;2023-07-29T06:29:04;98905.06;;;15.35;100.00
55301;BME280;58302;51.446;-2.000;2023-07-29T06:31:30;98906.88;;;15.31;100.00
55301;BME280;58302;51.446;-2.000;2023-07-29T06:33:58;98925.56;;;15.29;100.00
55301;BME280;58302;51.446;-2.000;2023-07-29T06:36:24;98919.69;;;15.39;100.00
55301;BME280;58302;51.446;-2.000;2023-07-29T06:38:50;98907.41;;;15.45;100.00
55301;BME280;58302;51.446;-2.000;2023-07-29T06:41:16;98908.59;;;15.57;100.00
55301;BME280;58302;51.446;-2.000;2023-07-29T06:43:42;98899.38;;;15.61;100.00
55301;BME280;58302;51.446;-2.000;2023-07-29T06:46:08;98874.22;;;15.68;100.00
55301;BME280;58302;51.446;-2.000;2023-07-29T06:48:34;98721.06;;;15.87;100.00
55301;BME280;58302;51.446;-2.000;2023-07-29T06:51:00;98707.59;;;16.06;100.00
55301;BME280;58302;51.446;-2.000;2023-07-29T06:53:28;98709.63;;;16.62;100.00
55301;BME280;58302;51.446;-2.000;2023-07-29T06:55:53;98148.63;;;17.03;100.00
55301;BME280;58302;51.446;-2.000;2023-07-29T06:58:20;98169.09;;;17.55;100.00
55301;BME280;58302;51.446;-2.000;2023-07-29T07:00:45;98191.81;;;18.28;100.00
55301;BME280;58302;51.446;-2.000;2023-07-29T07:03:11;98251.19;;;18.86;100.00
55301;BME280;58302;51.446;-2.000;2023-07-29T07:05:37;98252.94;;;19.35;100.00
55301;BME280;58302;51.446;-2.000;2023-07-29T07:08:03;98210.91;;;19.86;100.00
55301;BME280;58302;51.446;-2.000;2023-07-29T07:10:29;98178.75;;;20.04;100.00
55301;BME280;58302;51.446;-2.000;2023-07-29T07:12:55;98208.03;;;20.26;100.00
55301;BME280;58302;51.446;-2.000;2023-07-29T07:15:21;98201.50;;;19.94;100.00
55301;BME280;58302;51.446;-2.000;2023-07-29T07:17:47;98225.84;;;19.40;100.00
55301;BME280;58302;51.446;-2.000;2023-07-29T07:20:13;98245.16;;;19.07;100.00
55301;BME280;58302;51.446;-2.000;2023-07-29T07:22:39;98250.28;;;19.45;100.00
55301;BME280;58302;51.446;-2.000;2023-07-29T07:25:05;98224.31;;;19.84;100.00
55301;BME280;58302;51.446;-2.000;2023-07-29T07:27:31;98228.84;;;19.62;100.00
55301;BME280;58302;51.446;-2.000;2023-07-29T07:29:57;98238.44;;;19.82;100.00
55301;BME280;58302;51.446;-2.000;2023-07-29T07:32:23;98222.88;;;20.04;100.00
55301;BME280;58302;51.446;-2.000;2023-07-29T07:34:49;98229.19;;;19.60;100.00
55301;BME280;58302;51.446;-2.000;2023-07-29T07:37:15;98262.34;;;18.97;100.00
55301;BME280;58302;51.446;-2.000;2023-07-29T07:39:41;98296.66;;;18.50;100.00
55301;BME280;58302;51.446;-2.000;2023-07-29T07:42:07;98327.38;;;18.06;100.00
55301;BME280;58302;51.446;-2.000;2023-07-29T07:44:33;98352.97;;;17.87;100.00
55301;BME280;58302;51.446;-2.000;2023-07-29T07:46:59;98366.50;;;17.76;100.00
55301;BME280;58302;51.446;-2.000;2023-07-29T07:49:25;98372.19;;;17.68;100.00
55301;BME280;58302;51.446;-2.000;2023-07-29T07:51:51;98375.13;;;17.75;100.00
55301;BME280;58302;51.446;-2.000;2023-07-29T07:54:17;98383.53;;;17.85;100.00
55301;BME280;58302;51.446;-2.000;2023-07-29T07:56:43;98378.72;;;17.79;100.00
55301;BME280;58302;51.446;-2.000;2023-07-29T07:59:09;98386.38;;;17.70;100.00
55301;BME280;58302;51.446;-2.000;2023-07-29T08:01:36;98391.59;;;17.55;100.00
55301;BME280;58302;51.446;-2.000;2023-07-29T08:04:34;98395.53;;;17.58;100.00
55301;BME280;58302;51.446;-2.000;2023-07-29T08:07:00;98415.28;;;17.63;100.00
55301;BME280;58302;51.446;-2.000;2023-07-29T08:09:40;98413.13;;;17.53;100.00
55301;BME280;58302;51.446;-2.000;2023-07-29T08:28:58;98276.53;;;18.68;100.00
55301;BME280;58302;51.446;-2.000;2023-07-29T08:34:01;98285.84;;;18.64;100.00
55301;BME280;58302;51.446;-2.000;2023-07-29T08:36:27;98292.84;;;18.58;100.00
55301;BME280;58302;51.446;-2.000;2023-07-29T08:38:53;98299.69;;;18.67;100.00
55301;BME280;58302;51.446;-2.000;2023-07-29T08:41:24;98290.06;;;18.81;100.00
55301;BME280;58302;51.446;-2.000;2023-07-29T08:46:25;98245.81;;;19.30;100.00
55301;BME280;58302;51.446;-2.000;2023-07-29T08:48:52;98226.94;;;19.32;100.00
55301;BME280;58302;51.446;-2.000;2023-07-29T08:51:19;98245.16;;;19.07;100.00
55301;BME280;58302;51.446;-2.000;2023-07-29T08:53:52;98261.38;;;19.15;100.00
55301;BME280;58302;51.446;-2.000;2023-07-29T08:56:20;98168.13;;;20.06;100.00
55301;BME280;58302;51.446;-2.000;2023-07-29T08:58:47;98944.69;;;20.76;100.00
55301;BME280;58302;51.446;-2.000;2023-07-29T09:01:14;99008.72;;;21.31;100.00
55301;BME280;58302;51.446;-2.000;2023-07-29T09:03:41;99033.59;;;21.88;100.00
55301;BME280;58302;51.446;-2.000;2023-07-29T09:06:19;99265.66;;;22.72;100.00
55301;BME280;58302;51.446;-2.000;2023-07-29T09:08:49;99501.81;;;23.42;100.00
55301;BME280;58302;51.446;-2.000;2023-07-29T09:11:18;99517.84;;;22.79;100.00
55301;BME280;58302;51.446;-2.000;2023-07-29T09:13:45;99537.78;;;22.43;100.00
55301;BME280;58302;51.446;-2.000;2023-07-29T09:16:11;99542.03;;;22.37;100.00
55301;BME280;58302;51.446;-2.000;2023-07-29T09:18:37;99539.47;;;22.28;100.00
55301;BME280;58302;51.446;-2.000;2023-07-29T09:21:18;99541.41;;;22.08;100.00
55301;BME280;58302;51.446;-2.000;2023-07-29T09:23:56;99547.72;;;21.70;100.00
55301;BME280;58302;51.446;-2.000;2023-07-29T09:26:26;99539.59;;;21.26;100.00
55301;BME280;58302;51.446;-2.000;2023-07-29T09:28:57;99529.38;;;21.11;100.00
55301;BME280;58302;51.446;-2.000;2023-07-29T09:31:24;99516.75;;;20.94;100.00
55301;BME280;58302;51.446;-2.000;2023-07-29T09:33:57;99524.13;;;21.21;100.00
55301;BME280;58302;51.446;-2.000;2023-07-29T09:36:30;99514.63;;;21.54;100.00
55301;BME280;58302;51.446;-2.000;2023-07-29T09:38:57;99535.28;;;21.79;100.00
55301;BME280;58302;51.446;-2.000;2023-07-29T09:41:25;99540.81;;;21.60;100.00
55301;BME280;58302;51.446;-2.000;2023-07-29T09:44:10;99516.22;;;21.55;100.00
55301;BME280;58302;51.446;-2.000;2023-07-29T09:46:39;99521.31;;;22.30;100.00
55301;BME280;58302;51.446;-2.000;2023-07-29T09:49:08;99553.72;;;22.92;100.00
55301;BME280;58302;51.446;-2.000;2023-07-29T09:51:57;99565.16;;;23.62;100.00
55301;BME280;58302;51.446;-2.000;2023-07-29T09:54:36;99565.81;;;24.12;100.00
55301;BME280;58302;51.446;-2.000;2023-07-29T09:57:26;99585.13;;;22.99;100.00
55301;BME280;58302;51.446;-2.000;2023-07-29T09:59:54;99582.28;;;22.53;100.00
55301;BME280;58302;51.446;-2.000;2023-07-29T10:02:23;99586.69;;;22.77;100.00
55301;BME280;58302;51.446;-2.000;2023-07-29T10:05:04;99581.59;;;23.52;100.00
55301;BME280;58302;51.446;-2.000;2023-07-29T10:07:57;99594.53;;;24.27;100.00
55301;BME280;58302;51.446;-2.000;2023-07-29T10:10:30;99602.59;;;24.06;100.00
55301;BME280;58302;51.446;-2.000;2023-07-29T10:13:07;99601.66;;;23.42;100.00
55301;BME280;58302;51.446;-2.000;2023-07-29T10:15:56;99618.28;;;23.42;100.00
55301;BME280;58302;51.446;-2.000;2023-07-29T10:18:23;99611.97;;;23.67;100.00
55301;BME280;58302;51.446;-2.000;2023-07-29T10:24:06;99612.94;;;23.56;100.00
55301;BME280;58302;51.446;-2.000;2023-07-29T10:26:37;99601.47;;;23.31;100.00
55301;BME280;58302;51.446;-2.000;2023-07-29T10:29:20;99603.16;;;23.35;100.00
55301;BME280;58302;51.446;-2.000;2023-07-29T10:32:03;99613.59;;;23.99;100.00
55301;BME280;58302;51.446;-2.000;2023-07-29T10:34:41;99621.88;;;24.25;100.00
55301;BME280;58302;51.446;-2.000;2023-07-29T10:37:29;99615.09;;;24.53;100.00
55301;BME280;58302;51.446;-2.000;2023-07-29T10:40:09;99617.91;;;25.38;100.00
55301;BME280;58302;51.446;-2.000;2023-07-29T10:42:37;99626.91;;;25.72;100.00
55301;BME280;58302;51.446;-2.000;2023-07-29T10:51:36;99650.19;;;25.46;100.00
55301;BME280;58302;51.446;-2.000;2023-07-29T10:54:14;99624.06;;;25.65;100.00
55301;BME280;58302;51.446;-2.000;2023-07-29T10:56:43;99633.00;;;25.85;100.00
55301;BME280;58302;51.446;-2.000;2023-07-29T11:01:50;99633.78;;;23.96;100.00
55301;BME280;58302;51.446;-2.000;2023-07-29T11:20:08;99640.47;;;22.76;100.00
55301;BME280;58302;51.446;-2.000;2023-07-29T11:22:36;99651.75;;;23.06;100.00
55301;BME280;58302;51.446;-2.000;2023-07-29T11:25:03;99649.97;;;24.20;100.00
55301;BME280;58302;51.446;-2.000;2023-07-29T11:27:29;99659.44;;;25.13;100.00
55301;BME280;58302;51.446;-2.000;2023-07-29T11:30:09;99654.91;;;25.38;100.00
55301;BME280;58302;51.446;-2.000;2023-07-29T11:32:48;99661.25;;;25.39;100.00
55301;BME280;58302;51.446;-2.000;2023-07-29T11:35:17;99664.56;;;24.74;100.00
55301;BME280;58302;51.446;-2.000;2023-07-29T11:37:54;99662.13;;;24.08;100.00
55301;BME280;58302;51.446;-2.000;2023-07-29T11:40:21;99678.81;;;23.13;100.00
55301;BME280;58302;51.446;-2.000;2023-07-29T11:43:04;99677.53;;;22.87;100.00
55301;BME280;58302;51.446;-2.000;2023-07-29T11:45:36;99678.41;;;22.92;100.00
55301;BME280;58302;51.446;-2.000;2023-07-29T11:48:02;99678.75;;;23.32;100.00
55301;BME280;58302;51.446;-2.000;2023-07-29T11:50:29;99669.94;;;22.46;100.00
55301;BME280;58302;51.446;-2.000;2023-07-29T11:53:00;99672.84;;;22.72;100.00
55301;BME280;58302;51.446;-2.000;2023-07-29T11:55:52;99673.25;;;23.59;100.00
55301;BME280;58302;51.446;-2.000;2023-07-29T11:58:34;99675.09;;;23.74;100.00
55301;BME280;58302;51.446;-2.000;2023-07-29T12:04:37;99687.59;;;24.74;100.00
55301;BME280;58302;51.446;-2.000;2023-07-29T12:07:04;99687.91;;;24.69;100.00
55301;BME280;58302;51.446;-2.000;2023-07-29T12:09:30;99697.00;;;24.66;100.00
55301;BME280;58302;51.446;-2.000;2023-07-29T12:12:22;99696.53;;;24.30;100.00
55301;BME280;58302;51.446;-2.000;2023-07-29T12:15:04;99684.56;;;23.96;100.00
55301;BME280;58302;51.446;-2.000;2023-07-29T12:17:31;99683.53;;;23.58;100.00
55301;BME280;58302;51.446;-2.000;2023-07-29T12:19:57;99697.03;;;23.60;100.00
55301;BME280;58302;51.446;-2.000;2023-07-29T12:22:24;99694.66;;;23.35;100.00
55301;BME280;58302;51.446;-2.000;2023-07-29T12:24:51;99698.84;;;23.72;100.00
55301;BME280;58302;51.446;-2.000;2023-07-29T12:27:18;99703.47;;;23.64;100.00
55301;BME280;58302;51.446;-2.000;2023-07-29T12:29:44;99675.84;;;23.48;100.00
55301;BME280;58302;51.446;-2.000;2023-07-29T12:32:12;99696.47;;;23.28;100.00
55301;BME280;58302;51.446;-2.000;2023-07-29T12:34:38;99690.63;;;23.56;100.00
55301;BME280;58302;51.446;-2.000;2023-07-29T12:37:05;99701.53;;;23.91;100.00
55301;BME280;58302;51.446;-2.000;2023-07-29T12:39:33;99682.97;;;24.25;100.00
55301;BME280;58302;51.446;-2.000;2023-07-29T12:42:00;99694.41;;;24.80;100.00
55301;BME280;58302;51.446;-2.000;2023-07-29T12:44:34;99705.25;;;24.29;100.00
55301;BME280;58302;51.446;-2.000;2023-07-29T12:47:01;99703.31;;;23.57;100.00
55301;BME280;58302;51.446;-2.000;2023-07-29T12:49:29;99706.19;;;22.95;100.00
55301;BME280;58302;51.446;-2.000;2023-07-29T12:51:59;99704.56;;;23.36;100.00
55301;BME280;58302;51.446;-2.000;2023-07-29T12:54:25;99696.81;;;23.95;100.00
55301;BME280;58302;51.446;-2.000;2023-07-29T12:56:51;99700.88;;;24.01;100.00
55301;BME280;58302;51.446;-2.000;2023-07-29T12:59:17;99723.63;;;24.37;100.00
55301;BME280;58302;51.446;-2.000;2023-07-29T13:01:43;99710.06;;;24.62;100.00
55301;BME280;58302;51.446;-2.000;2023-07-29T13:04:10;99713.56;;;24.89;100.00
55301;BME280;58302;51.446;-2.000;2023-07-29T13:06:36;99713.44;;;25.12;100.00
55301;BME280;58302;51.446;-2.000;2023-07-29T13:09:02;99718.34;;;25.26;100.00
55301;BME280;58302;51.446;-2.000;2023-07-29T13:11:29;99712.97;;;24.73;100.00
55301;BME280;58302;51.446;-2.000;2023-07-29T13:13:55;99711.94;;;24.54;100.00
55301;BME280;58302;51.446;-2.000;2023-07-29T13:16:21;99711.22;;;24.61;100.00
55301;BME280;58302;51.446;-2.000;2023-07-29T13:18:46;99712.50;;;25.01;100.00
55301;BME280;58302;51.446;-2.000;2023-07-29T13:21:12;99728.13;;;25.49;100.00
55301;BME280;58302;51.446;-2.000;2023-07-29T13:23:38;99702.31;;;26.04;100.00
55301;BME280;58302;51.446;-2.000;2023-07-29T13:26:04;99705.44;;;25.95;100.00
55301;BME280;58302;51.446;-2.000;2023-07-29T13:28:30;99710.34;;;25.61;100.00
55301;BME280;58302;51.446;-2.000;2023-07-29T13:30:56;99711.94;;;25.62;100.00
55301;BME280;58302;51.446;-2.000;2023-07-29T13:33:22;99708.69;;;26.05;100.00
55301;BME280;58302;51.446;-2.000;2023-07-29T13:35:48;99721.44;;;26.09;100.00
55301;BME280;58302;51.446;-2.000;2023-07-29T13:38:14;99728.56;;;26.03;100.00
55301;BME280;58302;51.446;-2.000;2023-07-29T13:40:40;99724.56;;;25.53;100.00
55301;BME280;58302;51.446;-2.000;2023-07-29T13:43:06;99720.69;;;24.86;100.00
55301;BME280;58302;51.446;-2.000;2023-07-29T13:45:33;99737.75;;;24.88;100.00